Impacts METAR Board
IDs:

KPDX - Portland Intl Arpt, OR, US

Updated at: 1300 UTC 24 Aug 2019
Potential Impact None Slight Moderate High
Time 24/01Z 24/02Z 24/03Z 24/04Z 24/05Z 24/06Z 24/07Z 24/08Z 24/09Z 24/10Z 24/11Z 24/12Z 24/13Z
Temp82 81 77 74 71 68 67 65 64 64 63 63 62
Dewpt53 50 58 58 56 53 52 52 50 48 46 44 43
Altim29.85 29.84 29.85 29.87 29.89 29.91 29.91 29.92 29.93 29.92 29.94 29.94 29.95
VIS10 10 10 10 10 10 10 10 10 10 10 10 10
CIG250 220 250 250 -- -- -- -- -- -- -- 200 --
CoverBKNBKNBKNBKNSCTSCTCLRCLRCLRCLRFEWOVCSCT
FltCatVFRVFRVFRVFRVFRVFRVFRVFRVFRVFRVFRVFRVFR
WX--------------------------
WDir3603503303303203203103203200320350340
WSpd6 8 6 8 13 9 10 5 4 0 7 4 4
WGst-- -- -- -- 18 16 -- -- -- -- -- -- --
Raw hourly METARs
KPDX 240053Z 36006KT 10SM BKN250 28/12 A2985 RMK AO2 SLP108 T02780117
KPDX 240153Z 35008KT 10SM BKN220 27/10 A2984 RMK AO2 SLP103 T02720100
KPDX 240253Z 33006KT 10SM SCT200 BKN250 25/14 A2985 RMK AO2 SLP106 T02500144 55005
KPDX 240353Z 33008KT 10SM FEW180 BKN250 23/14 A2987 RMK AO2 SLP113 T02330144
KPDX 240453Z 32013G18KT 10SM SCT250 22/13 A2989 RMK AO2 SLP121 T02170133
KPDX 240553Z 32009G16KT 10SM SCT250 20/12 A2991 RMK AO2 SLP127 T02000117 10289 20200 52020
KPDX 240653Z 31010KT 10SM CLR 19/11 A2991 RMK AO2 SLP127 T01940111
KPDX 240753Z 32005KT 10SM CLR 18/11 A2992 RMK AO2 SLP129 T01830111 402890133
KPDX 240853Z 32004KT 10SM CLR 18/10 A2993 RMK AO2 SLP132 T01780100 53006
KPDX 240953Z 00000KT 10SM CLR 18/09 A2992 RMK AO2 SLP131 T01780089
KPDX 241053Z 32007KT 10SM FEW250 17/08 A2994 RMK AO2 SLP136 T01720078 $
KPDX 241153Z 35004KT 10SM OVC200 17/07 A2994 RMK AO2 SLP138 T01720067 10200 20167 53006 $
KPDX 241253Z 34004KT 10SM FEW070 SCT190 17/06 A2995 RMK AO2 SLP141 T01670061 $



Page loaded:  13:08 UTC  |   06:08 AM Pacific  |   07:08 AM Mountain  |   08:08 AM Central  |   09:08 AM Eastern

 

ADVISORIES

FORECASTS

FORECASTS

OBSERVATIONS

USER TOOLS

ABOUT US